Time;durP1;ratioP1;P1;durP2;ratioP2;P2;SDS_P1;SDS_P2;PMS_P1;PMS_P2;Temp;Humidity;BMP_temperature;BMP_pressure;BME280_temperature;BME280_humidity;BME280_pressure;Samples;Min_cycle;Max_cycle;Signal;HPM_P1;HPM_P2
2020/12/11 00:00:59;;;;;;;24.25;16.25;;;3.50;81.20;;;;;;5064083;28;20548;-74
2020/12/11 00:03:25;;;;;;;23.42;15.65;;;3.50;81.20;;;;;;5062568;28;20029;-73
2020/12/11 00:05:50;;;;;;;25.15;16.35;;;3.40;81.30;;;;;;5063270;28;20056;-77
2020/12/11 00:08:16;;;;;;;23.65;16.60;;;3.50;81.30;;;;;;5064282;28;20029;-74
2020/12/11 00:10:42;;;;;;;25.92;16.85;;;3.50;81.20;;;;;;5062545;28;20060;-75
2020/12/11 00:13:07;;;;;;;24.40;15.38;;;3.50;81.10;;;;;;5060132;28;20036;-73
2020/12/11 00:15:33;;;;;;;23.65;15.95;;;3.50;81.10;;;;;;5061362;28;20036;-74
2020/12/11 00:17:59;;;;;;;24.50;16.42;;;3.50;81.00;;;;;;5065661;28;20121;-75
2020/12/11 00:20:24;;;;;;;25.05;16.20;;;3.50;81.00;;;;;;5063187;28;20025;-73
2020/12/11 00:22:50;;;;;;;23.25;15.55;;;3.50;81.00;;;;;;5062466;28;20080;-80
2020/12/11 00:25:16;;;;;;;23.58;15.68;;;3.50;81.10;;;;;;5065147;28;20037;-74
2020/12/11 00:27:41;;;;;;;21.40;15.43;;;3.50;80.90;;;;;;5069281;28;20028;-73
2020/12/11 00:30:07;;;;;;;22.98;15.65;;;3.50;80.70;;;;;;5066900;28;20383;-73
2020/12/11 00:32:36;;;;;;;24.58;15.32;;;3.50;80.90;;;;;;5069367;28;20106;-77
2020/12/11 00:35:02;;;;;;;25.98;15.65;;;3.60;80.90;;;;;;5067672;28;20036;-77
2020/12/11 00:37:29;;;;;;;24.77;16.10;;;3.60;80.90;;;;;;5064444;28;20463;-73
2020/12/11 00:39:54;;;;;;;22.90;15.95;;;3.50;80.90;;;;;;5069633;28;20529;-73
2020/12/11 00:42:20;;;;;;;24.75;15.27;;;3.50;81.00;;;;;;5069747;28;20063;-75
2020/12/11 00:44:47;;;;;;;23.98;15.93;;;3.50;81.00;;;;;;5059497;28;20029;-75
2020/12/11 00:47:13;;;;;;;23.48;16.00;;;3.50;81.10;;;;;;5067293;28;20100;-75
2020/12/11 00:49:38;;;;;;;24.08;15.60;;;3.50;81.00;;;;;;5065275;28;20056;-75
2020/12/11 00:52:04;;;;;;;21.63;15.55;;;3.60;80.80;;;;;;5066329;28;20048;-84
2020/12/11 00:54:29;;;;;;;22.35;15.52;;;3.50;80.90;;;;;;5066162;28;20039;-74
2020/12/11 00:56:55;;;;;;;21.80;15.23;;;3.60;81.00;;;;;;5067250;28;20044;-76
2020/12/11 00:59:21;;;;;;;25.42;16.70;;;3.60;81.10;;;;;;5064922;28;20043;-73
2020/12/11 01:01:46;;;;;;;22.45;15.30;;;3.60;81.10;;;;;;5069089;28;20033;-74
2020/12/11 01:04:12;;;;;;;24.55;15.70;;;3.60;81.30;;;;;;5063023;28;20104;-83
2020/12/11 01:06:37;;;;;;;21.88;15.50;;;3.60;81.40;;;;;;5067267;28;20036;-73
2020/12/11 01:09:04;;;;;;;23.92;16.40;;;3.60;81.50;;;;;;5067279;28;20438;-82
2020/12/11 01:11:30;;;;;;;24.38;16.48;;;3.60;81.70;;;;;;5069235;28;20475;-82
2020/12/11 01:13:56;;;;;;;21.73;15.52;;;3.60;82.00;;;;;;5071062;28;20029;-74
2020/12/11 01:16:21;;;;;;;21.20;14.75;;;3.60;82.00;;;;;;5065850;28;20036;-74
2020/12/11 01:18:47;;;;;;;23.30;14.88;;;3.60;82.10;;;;;;5059860;28;20068;-78
2020/12/11 01:21:13;;;;;;;23.58;15.07;;;3.60;82.10;;;;;;5059328;28;20048;-73
2020/12/11 01:23:39;;;;;;;21.55;15.20;;;3.60;82.20;;;;;;5059126;28;20029;-77
2020/12/11 01:26:09;;;;;;;24.73;16.40;;;3.60;82.90;;;;;;5067760;28;20136;-82
2020/12/11 01:28:36;;;;;;;22.88;15.85;;;3.60;83.30;;;;;;5061187;28;20477;-74
2020/12/11 01:31:01;;;;;;;24.15;16.60;;;3.60;83.90;;;;;;5066642;28;20048;-74
2020/12/11 01:33:27;;;;;;;22.30;15.82;;;3.50;84.50;;;;;;5051253;28;20072;-75
2020/12/11 01:35:52;;;;;;;24.25;16.05;;;3.50;85.00;;;;;;5067798;28;20048;-74
2020/12/11 01:38:18;;;;;;;23.02;16.88;;;3.50;85.30;;;;;;5054918;28;20037;-73
2020/12/11 01:40:44;;;;;;;25.25;16.08;;;3.50;85.60;;;;;;5065362;28;20040;-74
2020/12/11 01:43:11;;;;;;;25.30;16.23;;;3.40;86.10;;;;;;5071057;28;20094;-74
2020/12/11 01:45:36;;;;;;;24.55;16.90;;;3.40;86.10;;;;;;5061992;28;20028;-74
2020/12/11 01:48:02;;;;;;;24.95;16.67;;;3.40;86.40;;;;;;5069766;28;20097;-77
2020/12/11 01:50:29;;;;;;;25.67;17.17;;;3.40;86.50;;;;;;5068195;28;20510;-73
2020/12/11 01:52:54;;;;;;;23.88;16.33;;;3.40;86.40;;;;;;5062521;28;20085;-73
2020/12/11 01:55:20;;;;;;;25.65;16.70;;;3.30;86.80;;;;;;5057104;28;20131;-73
2020/12/11 01:57:59;;;;;;;26.38;18.70;;;3.30;87.10;;;;;;5058184;28;20036;-74
2020/12/11 02:00:25;;;;;;;25.60;17.02;;;3.20;87.50;;;;;;5067098;28;20443;-74
2020/12/11 02:03:10;;;;;;;27.38;18.25;;;3.20;87.60;;;;;;5061413;28;20020;-73
2020/12/11 02:05:35;;;;;;;26.65;18.63;;;3.20;87.90;;;;;;5058737;28;20025;-73
2020/12/11 02:08:01;;;;;;;26.30;18.20;;;3.10;88.10;;;;;;5064124;28;20387;-74
2020/12/11 02:10:27;;;;;;;28.05;18.48;;;3.20;88.30;;;;;;5063414;28;20077;-74
2020/12/11 02:12:53;;;;;;;27.48;18.05;;;3.10;88.50;;;;;;5062850;28;20033;-73
2020/12/11 02:15:19;;;;;;;26.95;18.50;;;3.10;88.70;;;;;;5056015;28;20033;-73
2020/12/11 02:17:45;;;;;;;31.48;19.60;;;3.10;88.90;;;;;;5056992;28;20094;-73
2020/12/11 02:20:11;;;;;;;29.45;19.73;;;3.10;89.20;;;;;;5069609;28;20040;-73
2020/12/11 02:22:36;;;;;;;29.50;19.45;;;3.00;89.30;;;;;;5064496;28;20040;-74
2020/12/11 02:25:03;;;;;;;30.92;19.67;;;3.10;89.30;;;;;;5066241;28;20368;-75
2020/12/11 02:27:28;;;;;;;27.45;19.92;;;3.10;89.40;;;;;;5062325;28;20039;-73
2020/12/11 02:29:54;;;;;;;30.77;19.83;;;3.10;89.60;;;;;;5069600;28;20036;-74
2020/12/11 02:32:20;;;;;;;28.48;18.95;;;3.10;89.70;;;;;;5069591;28;22970;-73
2020/12/11 02:34:45;;;;;;;29.08;19.92;;;3.00;89.80;;;;;;5057832;28;20033;-75
2020/12/11 02:37:13;;;;;;;28.02;18.60;;;3.00;89.90;;;;;;5061940;28;20483;-73
2020/12/11 02:39:39;;;;;;;29.70;19.88;;;3.00;90.00;;;;;;5067040;28;20062;-73
2020/12/11 02:42:06;;;;;;;30.95;20.58;;;3.00;90.20;;;;;;5065037;28;20055;-77
2020/12/11 02:44:32;;;;;;;32.33;21.60;;;3.00;90.30;;;;;;5059952;28;20033;-75
2020/12/11 02:46:58;;;;;;;29.58;20.02;;;3.00;90.40;;;;;;5064750;28;20033;-74
2020/12/11 02:49:24;;;;;;;28.65;19.67;;;3.00;90.50;;;;;;5067781;28;20036;-73
2020/12/11 02:51:49;;;;;;;32.63;19.92;;;3.00;90.60;;;;;;5061591;28;20025;-74
2020/12/11 02:54:15;;;;;;;29.00;20.13;;;3.00;90.70;;;;;;5067892;28;20029;-73
2020/12/11 02:56:41;;;;;;;33.05;21.08;;;2.90;90.70;;;;;;5061289;28;20021;-74
2020/12/11 02:59:06;;;;;;;29.63;20.30;;;2.90;91.00;;;;;;5060345;28;20043;-73
2020/12/11 03:01:32;;;;;;;30.33;19.63;;;2.90;91.10;;;;;;5066771;28;20212;-74
2020/12/11 03:03:58;;;;;;;32.50;20.65;;;3.00;91.00;;;;;;5060794;28;20037;-73
2020/12/11 03:06:30;;;;;;;30.15;21.38;;;3.00;91.00;;;;;;5058512;28;20115;-73
2020/12/11 03:08:58;;;;;;;31.58;20.58;;;3.00;91.10;;;;;;5069757;28;20120;-73
2020/12/11 03:11:24;;;;;;;30.40;20.58;;;3.00;91.10;;;;;;5066362;28;20510;-77
2020/12/11 03:13:50;;;;;;;30.63;20.33;;;3.00;91.20;;;;;;5059284;28;20032;-74
2020/12/11 03:16:19;;;;;;;30.48;21.80;;;3.00;91.40;;;;;;5063344;28;20102;-73
2020/12/11 03:18:45;;;;;;;30.98;21.15;;;3.00;91.50;;;;;;5060858;28;20033;-74
2020/12/11 03:21:11;;;;;;;30.98;20.15;;;3.10;91.50;;;;;;5059741;28;20036;-74
2020/12/11 03:23:37;;;;;;;30.38;19.73;;;3.00;91.40;;;;;;5068661;28;20044;-73
2020/12/11 03:26:03;;;;;;;31.73;20.63;;;3.10;91.60;;;;;;5066023;28;20419;-76
2020/12/11 03:28:30;;;;;;;28.63;19.67;;;3.00;91.70;;;;;;5064487;28;20059;-74
2020/12/11 03:30:56;;;;;;;30.10;19.98;;;3.10;91.70;;;;;;5060629;28;20033;-73
2020/12/11 03:33:21;;;;;;;30.88;20.92;;;3.00;91.70;;;;;;5061485;28;20032;-73
2020/12/11 03:35:47;;;;;;;28.45;20.40;;;3.10;91.70;;;;;;5058293;28;20029;-74
2020/12/11 03:38:13;;;;;;;30.90;20.77;;;3.10;91.60;;;;;;5064772;28;20056;-74
2020/12/11 03:40:38;;;;;;;30.02;19.65;;;3.10;91.70;;;;;;5059016;28;20029;-73
2020/12/11 03:43:04;;;;;;;29.88;19.73;;;3.10;91.70;;;;;;5061605;28;20024;-76
2020/12/11 03:45:30;;;;;;;30.60;19.63;;;3.10;91.70;;;;;;5056014;28;20040;-73
2020/12/11 03:47:55;;;;;;;27.88;18.80;;;3.10;91.80;;;;;;5065754;28;20028;-74
2020/12/11 03:50:21;;;;;;;27.67;18.33;;;3.10;91.70;;;;;;5063212;28;20029;-76
2020/12/11 03:52:46;;;;;;;28.85;19.02;;;3.10;91.80;;;;;;5057284;28;20089;-73
2020/12/11 03:55:12;;;;;;;27.27;18.77;;;3.10;91.70;;;;;;5062259;28;20040;-74
2020/12/11 03:57:38;;;;;;;27.38;18.70;;;3.20;91.70;;;;;;5059548;28;20024;-74
2020/12/11 04:00:04;;;;;;;28.23;18.52;;;3.20;91.70;;;;;;5058442;28;20051;-74
2020/12/11 04:02:30;;;;;;;28.45;17.83;;;3.10;91.80;;;;;;5060153;28;20044;-73
2020/12/11 04:04:55;;;;;;;26.67;18.38;;;3.20;91.90;;;;;;5066810;28;20037;-74
2020/12/11 04:07:21;;;;;;;25.08;17.73;;;3.20;91.90;;;;;;5063775;28;20035;-74
2020/12/11 04:09:47;;;;;;;25.58;16.88;;;3.20;92.00;;;;;;5067703;28;20042;-75
2020/12/11 04:12:12;;;;;;;25.55;17.50;;;3.20;92.10;;;;;;5055480;28;20037;-75
2020/12/11 04:14:38;;;;;;;25.35;16.92;;;3.20;92.10;;;;;;5064422;28;20082;-75
2020/12/11 04:17:04;;;;;;;24.58;16.42;;;3.20;92.10;;;;;;5068222;28;20131;-74
2020/12/11 04:19:29;;;;;;;23.48;16.50;;;3.20;92.10;;;;;;5066897;28;20040;-75
2020/12/11 04:21:55;;;;;;;25.27;17.05;;;3.20;92.20;;;;;;5058076;28;20029;-74
2020/12/11 04:24:23;;;;;;;24.55;16.65;;;3.30;92.20;;;;;;5058180;28;20064;-75
2020/12/11 04:26:49;;;;;;;25.00;17.23;;;3.30;92.10;;;;;;5059827;28;20037;-78
2020/12/11 04:29:15;;;;;;;25.38;16.45;;;3.30;92.10;;;;;;5064025;28;20021;-74
2020/12/11 04:31:41;;;;;;;23.60;16.33;;;3.30;92.00;;;;;;5068401;28;20553;-76
2020/12/11 04:34:07;;;;;;;23.95;16.55;;;3.30;92.00;;;;;;5058165;28;20045;-78
2020/12/11 04:36:33;;;;;;;23.90;16.80;;;3.40;92.00;;;;;;5064558;28;20560;-78
2020/12/11 04:38:58;;;;;;;20.50;15.15;;;3.40;91.90;;;;;;5064890;28;20021;-74
2020/12/11 04:41:29;;;;;;;24.30;16.35;;;3.40;92.00;;;;;;5063401;28;20020;-76
2020/12/11 04:43:56;;;;;;;25.58;15.93;;;3.50;91.80;;;;;;5059085;28;20067;-75
2020/12/11 04:46:28;;;;;;;25.40;17.13;;;3.50;91.90;;;;;;5059593;28;20025;-78
2020/12/11 04:48:58;;;;;;;23.48;16.45;;;3.50;91.80;;;;;;5059192;28;20032;-74
2020/12/11 04:51:30;;;;;;;23.80;16.77;;;3.50;91.70;;;;;;5063867;28;20033;-75
2020/12/11 04:53:58;;;;;;;24.35;16.65;;;3.60;91.70;;;;;;5064592;28;20442;-75
2020/12/11 04:56:25;;;;;;;22.30;15.95;;;3.60;91.70;;;;;;5062481;28;20025;-74
2020/12/11 04:58:52;;;;;;;23.95;16.58;;;3.60;91.70;;;;;;5062163;28;20031;-77
2020/12/11 05:01:31;;;;;;;24.15;16.85;;;3.70;91.50;;;;;;5063087;28;20049;-80
2020/12/11 05:03:58;;;;;;;23.45;16.08;;;3.70;91.50;;;;;;5061935;28;20032;-76
2020/12/11 05:06:25;;;;;;;22.90;16.10;;;3.70;91.40;;;;;;5063935;28;20036;-76
2020/12/11 05:09:18;;;;;;;25.15;17.08;;;3.70;91.40;;;;;;5064092;28;20028;-77
2020/12/11 05:11:45;;;;;;;24.70;17.60;;;3.70;91.50;;;;;;5061236;28;20082;-74
2020/12/11 05:14:23;;;;;;;24.95;16.70;;;3.70;91.60;;;;;;5061436;28;20040;-76
2020/12/11 05:16:59;;;;;;;22.10;16.45;;;3.80;91.70;;;;;;5070705;28;20032;-75
2020/12/11 05:19:26;;;;;;;24.70;16.65;;;3.70;91.80;;;;;;5065673;28;20028;-75
2020/12/11 05:21:52;;;;;;;24.17;16.00;;;3.60;91.80;;;;;;5067528;28;20395;-75
2020/12/11 05:24:18;;;;;;;27.30;18.15;;;3.70;92.00;;;;;;5062384;28;20032;-77
2020/12/11 05:26:44;;;;;;;23.73;17.00;;;3.70;92.10;;;;;;5064816;28;20090;-78
2020/12/11 05:29:10;;;;;;;25.13;16.15;;;3.70;92.10;;;;;;5067054;28;20060;-75
2020/12/11 05:31:35;;;;;;;25.52;17.60;;;3.70;92.30;;;;;;5066370;28;20451;-75
2020/12/11 05:34:05;;;;;;;25.13;17.17;;;3.70;92.30;;;;;;5069988;28;20063;-75
2020/12/11 05:36:42;;;;;;;26.00;18.15;;;3.70;92.40;;;;;;5061410;28;20078;-75
2020/12/11 05:39:08;;;;;;;26.77;18.65;;;3.70;92.40;;;;;;5065559;28;20043;-80
2020/12/11 05:41:35;;;;;;;27.38;18.83;;;3.70;92.50;;;;;;5063934;28;20398;-79
2020/12/11 05:44:01;;;;;;;24.63;17.80;;;3.70;92.60;;;;;;5066015;28;20033;-76
2020/12/11 05:46:30;;;;;;;27.92;19.10;;;3.70;92.50;;;;;;5067442;28;20037;-74
2020/12/11 05:49:00;;;;;;;26.60;18.40;;;3.70;92.50;;;;;;5064231;28;20181;-75
2020/12/11 05:51:34;;;;;;;24.88;17.30;;;3.70;92.50;;;;;;5065256;28;20387;-74
2020/12/11 05:54:04;;;;;;;26.08;17.20;;;3.80;92.50;;;;;;5062934;28;20128;-74
2020/12/11 05:56:31;;;;;;;26.17;17.25;;;3.80;92.50;;;;;;5064942;28;20059;-75
2020/12/11 05:58:58;;;;;;;26.02;18.08;;;3.80;92.50;;;;;;5067208;28;20024;-82
2020/12/11 06:01:25;;;;;;;25.73;17.52;;;3.80;92.50;;;;;;5067963;28;20032;-74
2020/12/11 06:03:51;;;;;;;30.00;20.00;;;3.80;92.60;;;;;;5062273;28;20060;-75
2020/12/11 06:06:17;;;;;;;26.80;17.83;;;3.80;92.60;;;;;;5056624;28;20051;-74
2020/12/11 06:08:45;;;;;;;27.30;17.70;;;3.80;92.70;;;;;;5067036;28;20033;-75
2020/12/11 06:11:21;;;;;;;25.10;18.00;;;3.80;92.70;;;;;;5058670;28;20040;-74
2020/12/11 06:13:56;;;;;;;28.08;19.77;;;3.80;92.80;;;;;;5057624;28;20541;-78
2020/12/11 06:16:22;;;;;;;;;;;3.80;92.90;;;;;;5058255;28;20086;-77
2020/12/11 06:18:54;;;;;;;28.88;18.38;;;3.90;92.90;;;;;;5065591;28;19909;-82
2020/12/11 06:21:21;;;;;;;26.10;18.05;;;3.90;93.00;;;;;;5066254;28;20479;-77
2020/12/11 06:23:46;;;;;;;29.40;17.77;;;3.90;92.90;;;;;;5056562;28;20037;-74
2020/12/11 06:26:15;;;;;;;25.52;18.08;;;3.90;92.90;;;;;;5058611;28;20503;-76
2020/12/11 06:28:45;;;;;;;28.42;19.30;;;3.90;93.00;;;;;;5065270;28;20028;-76
2020/12/11 06:31:15;;;;;;;25.35;17.98;;;3.90;93.00;;;;;;5059562;28;20133;-78
2020/12/11 06:33:43;;;;;;;26.58;18.13;;;4.00;93.00;;;;;;5066210;28;20040;-75
2020/12/11 06:36:10;;;;;;;28.80;17.70;;;4.00;93.00;;;;;;5053331;28;20029;-73
2020/12/11 06:38:58;;;;;;;25.90;17.65;;;4.00;93.10;;;;;;5068768;28;20048;-77
2020/12/11 06:41:27;;;;;;;24.40;16.98;;;4.10;93.10;;;;;;5066158;28;20383;-73
2020/12/11 06:43:56;;;;;;;25.95;16.80;;;4.10;93.10;;;;;;5067547;28;20052;-73
2020/12/11 06:46:24;;;;;;;24.77;16.92;;;4.10;93.10;;;;;;5054103;28;20037;-73
2020/12/11 06:49:09;;;;;;;25.33;16.55;;;4.10;93.10;;;;;;5064955;28;20082;-73
2020/12/11 06:51:54;;;;;;;24.67;16.55;;;4.10;93.20;;;;;;5065744;28;20036;-78
2020/12/11 06:54:23;;;;;;;22.67;15.88;;;4.10;93.20;;;;;;5054729;28;21184;-73
2020/12/11 06:57:00;;;;;;;23.88;15.48;;;4.10;93.30;;;;;;5061954;28;20035;-73
2020/12/11 06:59:25;;;;;;;23.08;15.38;;;4.10;93.30;;;;;;5057488;28;20044;-73
2020/12/11 07:02:08;;;;;;;22.50;14.80;;;4.10;93.30;;;;;;5066092;28;20032;-73
2020/12/11 07:04:44;;;;;;;21.95;14.05;;;4.10;93.30;;;;;;5058156;28;20051;-73
2020/12/11 07:07:11;;;;;;;19.60;14.13;;;4.10;93.30;;;;;;5059937;28;20035;-74
2020/12/11 07:09:40;;;;;;;21.08;13.63;;;4.10;93.40;;;;;;5067416;28;20231;-73
2020/12/11 07:12:07;;;;;;;21.98;15.13;;;4.10;93.40;;;;;;5066340;28;20036;-74
2020/12/11 07:14:33;;;;;;;19.80;13.70;;;4.10;93.50;;;;;;5066814;28;20132;-73
2020/12/11 07:16:59;;;;;;;18.75;13.15;;;4.20;93.40;;;;;;5067360;28;20036;-75
2020/12/11 07:19:25;;;;;;;18.25;12.88;;;4.20;93.30;;;;;;5063990;28;20086;-70
2020/12/11 07:21:51;;;;;;;19.95;12.75;;;4.20;93.30;;;;;;5063135;28;20034;-74
2020/12/11 07:24:17;;;;;;;19.20;12.88;;;4.30;93.30;;;;;;5058031;28;20123;-74
2020/12/11 07:26:43;;;;;;;16.42;12.70;;;4.20;93.30;;;;;;5065839;28;20107;-74
2020/12/11 07:29:15;;;;;;;16.42;11.40;;;4.30;93.20;;;;;;5053229;28;20021;-71
2020/12/11 07:31:46;;;;;;;15.88;11.82;;;4.30;93.00;;;;;;5060220;28;20033;-72
2020/12/11 07:34:20;;;;;;;17.13;11.93;;;4.40;93.00;;;;;;5069282;28;20032;-72
2020/12/11 07:36:54;;;;;;;15.98;10.80;;;4.30;92.90;;;;;;5065229;28;20017;-71
2020/12/11 07:39:21;;;;;;;16.48;11.60;;;4.40;92.90;;;;;;5059639;28;20040;-72
2020/12/11 07:41:48;;;;;;;14.45;10.77;;;4.40;92.90;;;;;;5060194;28;20477;-73
2020/12/11 07:44:24;;;;;;;15.85;11.35;;;4.40;93.00;;;;;;5064499;28;20369;-72
2020/12/11 07:46:50;;;;;;;15.70;11.23;;;4.40;92.90;;;;;;5061282;28;20040;-70
2020/12/11 07:49:16;;;;;;;14.52;10.60;;;4.40;92.80;;;;;;5064020;28;20032;-72
2020/12/11 07:51:49;;;;;;;15.95;11.35;;;4.40;92.70;;;;;;5061819;28;20115;-72
2020/12/11 07:54:16;;;;;;;15.68;11.27;;;4.50;92.70;;;;;;5061977;28;20036;-71
2020/12/11 07:56:42;;;;;;;15.63;11.10;;;4.50;92.70;;;;;;5063139;28;20493;-70
2020/12/11 07:59:12;;;;;;;15.02;11.30;;;4.50;92.60;;;;;;5064893;28;20047;-70
2020/12/11 08:01:38;;;;;;;15.82;11.30;;;4.60;92.70;;;;;;5056542;28;20561;-71
2020/12/11 08:04:04;;;;;;;15.10;10.20;;;4.50;92.60;;;;;;5062076;28;20506;-71
2020/12/11 08:06:31;;;;;;;15.70;11.13;;;4.60;92.70;;;;;;5061771;28;20028;-70
2020/12/11 08:08:56;;;;;;;14.20;10.25;;;4.60;92.60;;;;;;5066739;28;20032;-70
2020/12/11 08:11:26;;;;;;;13.77;10.13;;;4.60;92.60;;;;;;5062678;28;20546;-71
2020/12/11 08:13:59;;;;;;;13.70;9.48;;;4.60;92.60;;;;;;5065862;28;20078;-70
2020/12/11 08:16:25;;;;;;;12.15;8.82;;;4.60;92.50;;;;;;5063828;28;20025;-72
2020/12/11 08:18:51;;;;;;;14.43;9.60;;;4.70;92.60;;;;;;5065339;28;20052;-71
2020/12/11 08:21:31;;;;;;;11.82;8.95;;;4.70;92.50;;;;;;5062403;28;20044;-73
2020/12/11 08:23:57;;;;;;;12.90;9.13;;;4.70;92.50;;;;;;5061851;28;20039;-73
2020/12/11 08:26:24;;;;;;;12.52;9.38;;;4.70;92.30;;;;;;5063038;28;20031;-73
2020/12/11 08:29:02;;;;;;;12.75;9.02;;;4.80;92.40;;;;;;5066783;28;20075;-70
2020/12/11 08:31:28;;;;;;;13.27;9.15;;;4.80;92.30;;;;;;5064585;28;20539;-71
2020/12/11 08:34:13;;;;;;;16.23;9.85;;;4.80;92.40;;;;;;5059123;28;20489;-77
2020/12/11 08:36:47;;;;;;;15.57;9.30;;;4.90;92.40;;;;;;5060658;28;20025;-70
2020/12/11 08:39:25;;;;;;;11.80;8.33;;;4.90;92.40;;;;;;5058649;28;20475;-77
2020/12/11 08:42:08;;;;;;;13.13;9.60;;;4.90;92.50;;;;;;5054973;28;20029;-70
2020/12/11 08:49:41;;;;;;;11.57;7.85;;;5.00;92.30;;;;;;5069179;28;20391;-70
2020/12/11 08:52:08;;;;;;;14.75;7.55;;;5.00;92.30;;;;;;5068922;28;20048;-70
2020/12/11 08:54:33;;;;;;;11.60;7.68;;;5.00;92.30;;;;;;5062399;28;20112;-71
2020/12/11 08:56:59;;;;;;;12.07;8.35;;;5.00;92.30;;;;;;5067050;28;20467;-71
2020/12/11 08:59:25;;;;;;;11.93;7.53;;;5.00;92.30;;;;;;5067869;28;20039;-71
2020/12/11 09:01:50;;;;;;;13.75;10.00;;;5.10;92.30;;;;;;5065035;28;20029;-73
2020/12/11 09:04:16;;;;;;;13.27;8.75;;;5.10;92.30;;;;;;5060406;28;20025;-68
2020/12/11 09:06:44;;;;;;;10.75;7.97;;;5.10;92.30;;;;;;5071566;28;20025;-69
2020/12/11 09:09:10;;;;;;;10.40;7.60;;;5.10;92.30;;;;;;5066977;28;20391;-69
2020/12/11 09:11:35;;;;;;;9.25;6.78;;;5.10;92.30;;;;;;5067744;28;20024;-68
2020/12/11 09:14:01;;;;;;;10.43;6.88;;;5.10;92.30;;;;;;5058029;28;20048;-69
2020/12/11 09:16:27;;;;;;;9.30;6.65;;;5.20;92.20;;;;;;5064638;28;20028;-68
2020/12/11 09:18:53;;;;;;;9.95;6.15;;;5.20;92.30;;;;;;5066525;28;20060;-71
2020/12/11 09:21:18;;;;;;;10.30;5.90;;;5.30;92.30;;;;;;5061587;28;20563;-68
2020/12/11 09:23:44;;;;;;;10.68;6.28;;;5.30;92.20;;;;;;5067192;28;20032;-68
2020/12/11 09:26:10;;;;;;;10.00;6.53;;;5.30;92.10;;;;;;5066214;28;20029;-68
2020/12/11 09:28:36;;;;;;;8.70;5.53;;;5.30;92.20;;;;;;5066606;28;20040;-69
2020/12/11 09:31:02;;;;;;;11.82;6.82;;;5.40;92.20;;;;;;5060834;28;20040;-69
2020/12/11 09:33:30;;;;;;;9.98;6.57;;;5.50;92.30;;;;;;5063281;28;20048;-69
2020/12/11 09:35:55;;;;;;;8.85;5.13;;;5.60;92.20;;;;;;5058960;28;20043;-69
2020/12/11 09:38:21;;;;;;;7.93;5.20;;;5.60;92.00;;;;;;5065824;28;20028;-69
2020/12/11 09:40:53;;;;;;;8.23;5.43;;;5.60;91.90;;;;;;5060327;28;20029;-69
2020/12/11 09:45:50;;;;;;;9.07;5.57;;;5.70;91.90;;;;;;5066519;28;20115;-68
2020/12/11 09:51:01;;;;;;;7.63;5.13;;;5.80;91.90;;;;;;5065579;28;20031;-72
2020/12/11 09:56:01;;;;;;;7.38;5.32;;;5.80;91.70;;;;;;5061045;28;19916;-71
2020/12/11 09:58:27;;;;;;;8.70;5.63;;;5.80;91.80;;;;;;5060486;28;20078;-71
2020/12/11 10:00:52;;;;;;;8.15;4.75;;;5.80;91.80;;;;;;5064333;28;20547;-69
2020/12/11 10:03:22;;;;;;;8.02;5.22;;;5.80;91.80;;;;;;5064096;28;20040;-72
2020/12/11 10:05:48;;;;;;;7.68;4.97;;;5.90;91.90;;;;;;5067808;28;20474;-70
2020/12/11 10:08:13;;;;;;;6.75;4.43;;;5.90;91.90;;;;;;5068586;28;20040;-69
2020/12/11 10:10:39;;;;;;;7.25;4.70;;;6.00;91.80;;;;;;5059491;28;20037;-69
2020/12/11 10:13:06;;;;;;;8.82;5.10;;;6.00;91.60;;;;;;5068448;28;20052;-70
2020/12/11 10:15:32;;;;;;;7.60;4.68;;;6.10;91.50;;;;;;5061673;28;20079;-69
2020/12/11 10:18:02;;;;;;;9.98;4.45;;;6.00;91.50;;;;;;5056667;28;20147;-69
2020/12/11 10:20:27;;;;;;;9.73;5.07;;;6.00;91.50;;;;;;5055046;28;20451;-69
2020/12/11 10:22:53;;;;;;;8.38;5.13;;;6.10;91.50;;;;;;5053942;28;20033;-69
2020/12/11 10:25:20;;;;;;;8.27;4.45;;;6.10;91.60;;;;;;5063259;28;20025;-70
2020/12/11 10:27:46;;;;;;;8.30;5.10;;;6.10;91.60;;;;;;5056007;28;20040;-70
2020/12/11 10:30:12;;;;;;;7.03;4.45;;;6.10;91.70;;;;;;5061673;28;20035;-70
2020/12/11 10:32:39;;;;;;;7.38;4.13;;;6.10;91.60;;;;;;5057843;28;20399;-72
2020/12/11 10:35:05;;;;;;;7.72;3.85;;;6.10;91.50;;;;;;5068452;28;20371;-71
2020/12/11 10:37:32;;;;;;;6.32;4.30;;;6.10;91.50;;;;;;5058542;28;20033;-71
2020/12/11 10:39:58;;;;;;;7.15;4.43;;;6.10;91.50;;;;;;5058690;28;20116;-71
2020/12/11 10:42:24;;;;;;;6.15;3.88;;;6.10;91.60;;;;;;5067830;28;20108;-71
2020/12/11 10:44:50;;;;;;;6.88;4.22;;;6.10;91.50;;;;;;5061049;28;20032;-71
2020/12/11 10:47:16;;;;;;;7.85;4.72;;;6.10;91.50;;;;;;5062697;28;20031;-71
2020/12/11 10:49:41;;;;;;;9.05;4.90;;;6.10;91.70;;;;;;5061227;28;20037;-71
2020/12/11 10:52:07;;;;;;;8.40;5.22;;;6.10;91.80;;;;;;5059103;28;20123;-71
2020/12/11 10:54:33;;;;;;;8.00;4.88;;;6.10;91.90;;;;;;5065858;28;20135;-71
2020/12/11 10:56:59;;;;;;;7.80;4.32;;;6.20;91.90;;;;;;5064937;28;20083;-71
2020/12/11 10:59:24;;;;;;;6.32;4.13;;;6.20;91.70;;;;;;5060905;28;20310;-71
2020/12/11 11:01:50;;;;;;;6.97;4.47;;;6.10;91.70;;;;;;5059938;28;20036;-71
2020/12/11 11:04:17;;;;;;;6.78;4.70;;;6.20;91.80;;;;;;5065097;28;20572;-73
2020/12/11 11:07:05;;;;;;;8.15;4.30;;;6.10;91.80;;;;;;5064070;28;20020;-71
2020/12/11 11:09:51;;;;;;;8.20;5.22;;;6.20;91.90;;;;;;5064116;28;20044;-71
2020/12/11 11:12:32;;;;;;;7.82;5.32;;;6.10;91.90;;;;;;5063720;28;20143;-73
2020/12/11 11:20:37;;;;;;;7.95;4.63;;;6.10;92.10;;;;;;5061846;28;20028;-75
2020/12/11 11:23:35;;;;;;;7.40;4.82;;;6.10;92.10;;;;;;5062437;28;20033;-74
2020/12/11 11:28:32;;;;;;;8.02;5.13;;;6.20;92.20;;;;;;5064415;28;20447;-74
2020/12/11 11:30:57;;;;;;;7.57;5.05;;;6.10;92.30;;;;;;5060514;28;20038;-75
2020/12/11 11:33:23;;;;;;;8.20;5.22;;;6.10;92.40;;;;;;5062824;28;20029;-76
2020/12/11 11:35:49;;;;;;;7.82;5.07;;;6.10;92.40;;;;;;5061860;28;20523;-75
2020/12/11 11:38:17;;;;;;;8.73;4.78;;;6.10;92.40;;;;;;5055818;28;20032;-77
2020/12/11 11:40:44;;;;;;;8.35;5.60;;;6.20;92.40;;;;;;5063924;28;20071;-75
2020/12/11 11:43:10;;;;;;;9.50;5.68;;;6.20;92.40;;;;;;5061815;28;20039;-75
2020/12/11 11:45:37;;;;;;;7.90;5.25;;;6.20;92.40;;;;;;5065022;28;20037;-71
2020/12/11 11:48:08;;;;;;;8.65;5.95;;;6.20;92.40;;;;;;5063539;28;20044;-77
2020/12/11 11:53:28;;;;;;;7.80;4.78;;;6.20;92.50;;;;;;5057195;28;21157;-72
2020/12/11 11:55:54;;;;;;;7.50;4.70;;;6.20;92.50;;;;;;5058505;28;20037;-75
2020/12/11 11:58:20;;;;;;;7.28;4.88;;;6.30;92.50;;;;;;5061842;28;21565;-79
2020/12/11 12:00:46;;;;;;;7.35;4.85;;;6.20;92.50;;;;;;5063905;28;20541;-74
2020/12/11 12:03:12;;;;;;;8.07;5.57;;;6.30;92.50;;;;;;5061577;28;20336;-74
2020/12/11 12:05:37;;;;;;;9.07;5.70;;;6.30;92.50;;;;;;5065588;28;20024;-75
2020/12/11 12:08:03;;;;;;;8.90;6.00;;;6.20;92.50;;;;;;5059569;28;20097;-74
2020/12/11 12:10:29;;;;;;;10.55;6.20;;;6.30;92.60;;;;;;5060693;28;20388;-75
2020/12/11 12:12:55;;;;;;;10.25;7.38;;;6.30;92.70;;;;;;5065835;28;20040;-77
2020/12/11 12:15:23;;;;;;;11.63;7.25;;;6.30;92.80;;;;;;5061970;28;20558;-74
2020/12/11 12:18:02;;;;;;;9.80;8.05;;;6.40;92.80;;;;;;5059595;28;20048;-75
2020/12/11 12:31:08;;;;;;;7.40;4.88;;;6.50;92.80;;;;;;5060316;28;20419;-75
2020/12/11 12:38:55;;;;;;;8.57;6.28;;;6.60;92.80;;;;;;5061262;28;20043;-73
2020/12/11 12:44:05;;;;;;;8.73;6.32;;;6.50;92.80;;;;;;5057199;28;20582;-77
2020/12/11 12:46:31;;;;;;;8.77;6.25;;;6.60;92.70;;;;;;5063311;28;20116;-74
2020/12/11 12:48:56;;;;;;;8.45;5.55;;;6.60;92.70;;;;;;5061503;28;20174;-74
2020/12/11 12:51:22;;;;;;;8.80;6.15;;;6.60;92.70;;;;;;5060475;28;20115;-74
2020/12/11 12:53:48;;;;;;;9.65;5.57;;;6.60;92.80;;;;;;5063782;28;20067;-74
2020/12/11 12:59:05;;;;;;;8.30;5.82;;;6.60;92.80;;;;;;5065907;28;20055;-74
2020/12/11 13:02:30;;;;;;;8.30;6.13;;;6.70;92.80;;;;;;5042964;28;20033;-74
2020/12/11 13:07:06;;;;;;;8.95;6.13;;;6.70;92.90;;;;;;5055897;28;20036;-77
2020/12/11 13:09:31;;;;;;;8.63;5.63;;;6.80;93.00;;;;;;5055888;28;20056;-74
2020/12/11 13:11:57;;;;;;;8.18;5.75;;;6.80;92.90;;;;;;5052929;28;20391;-73
2020/12/11 13:14:23;;;;;;;8.95;6.18;;;6.80;92.90;;;;;;5054765;28;20040;-74
2020/12/11 13:16:48;;;;;;;8.80;6.20;;;6.70;93.00;;;;;;5064785;28;20025;-74
2020/12/11 13:19:16;;;;;;;9.75;7.25;;;6.70;93.10;;;;;;5052248;28;20028;-74
2020/12/11 13:27:23;;;;;;;11.25;7.80;;;6.80;93.30;;;;;;5058332;28;20459;-75
2020/12/11 13:29:50;;;;;;;9.68;7.55;;;6.80;93.40;;;;;;5056627;28;20043;-73
2020/12/11 13:32:16;;;;;;;10.35;8.18;;;6.80;93.50;;;;;;5058067;28;20033;-73
2020/12/11 13:34:42;;;;;;;10.63;8.00;;;6.80;93.60;;;;;;5058189;28;20411;-74
2020/12/11 13:37:07;;;;;;;10.10;7.93;;;6.80;93.70;;;;;;5061384;28;20033;-73
2020/12/11 13:39:33;;;;;;;12.32;7.70;;;6.80;93.70;;;;;;5057178;28;20025;-74